Terminal Aerodrome Forecast
Issued by NWS

Current Version | Previous Version | Text Only | Print | Product List | Glossary On
Versions: 1 2 3 4 5 6 7 8 9 10 11 12 13 14 15 16 17 18 19 20
000
FTUS43 KFGF 211700
TAFBJI
TAF
KBJI 211724Z 2118/2218 13007KT P6SM BKN009
     FM212200 VRB03KT P6SM VCSH BKN015
     FM220300 01005KT P6SM BKN012
     FM221100 32003KT 4SM BR OVC007=

USA.gov is the U.S. government's official web portal to all federal, state and local government web resources and services.